Serra, Brazil
Current Conditions -  °F | °C
As of 11:00 PM on Saturday 20 Dec 2014 (Local Time) from SBVT Reporting Station
Scattered Clouds Scattered Clouds  
Wind Chill: 79°   Ceiling: Unl
Heat Index: 81°   Visibility: 6mi
Dew Point: 70°   Wind: 9mph
Humidity: 74%   Direction: 10°N
Pressure: 29.88"   Gusts: NA
Location:  20.13°S, 40.32°W
Report Text: SBVT 210100Z 01008KT 9999 FEW019 SCT100 26/21 Q1012
Loading
Personal Weather Stations






























Interactive Weather Map New forecast layout! Learn more

10-Day Weather Forecast

Advertisements
Track Severe Weather on mobile